createdAt,value
2023-01-21T00:00:56.820Z,18.98
2023-01-21T00:03:23.441Z,20.85
2023-01-21T00:05:50.330Z,19.70
2023-01-21T00:08:16.909Z,20.48
2023-01-21T00:10:43.495Z,19.65
2023-01-21T00:13:09.931Z,20.05
2023-01-21T00:15:36.926Z,18.63
2023-01-21T00:18:03.463Z,18.77
2023-01-21T00:20:29.894Z,17.42
2023-01-21T00:22:56.359Z,16.65
2023-01-21T00:25:22.804Z,16.60
2023-01-21T00:27:49.264Z,17.00
2023-01-21T00:30:16.338Z,16.70
2023-01-21T00:32:42.948Z,15.82
2023-01-21T00:35:09.681Z,15.52
2023-01-21T00:37:36.097Z,15.70
2023-01-21T00:40:02.703Z,14.75
2023-01-21T00:42:29.912Z,15.68
2023-01-21T00:44:57.388Z,14.65
2023-01-21T00:47:24.451Z,13.63
2023-01-21T00:49:51.110Z,13.98
2023-01-21T00:52:17.567Z,14.57
2023-01-21T00:54:44.380Z,15.48
2023-01-21T00:57:10.884Z,17.08
2023-01-21T00:59:37.561Z,21.95
2023-01-21T01:02:04.070Z,27.27
2023-01-21T01:04:30.544Z,28.92
2023-01-21T01:06:57.199Z,27.33
2023-01-21T01:09:23.658Z,25.67
2023-01-21T01:11:50.106Z,22.33
2023-01-21T01:14:16.511Z,19.42
2023-01-21T01:16:43.016Z,15.98
2023-01-21T01:19:11.601Z,15.07
2023-01-21T01:21:38.361Z,15.18
2023-01-21T01:24:06.126Z,14.85
2023-01-21T01:26:35.440Z,14.60
2023-01-21T01:29:03.698Z,13.20
2023-01-21T01:31:30.202Z,14.52
2023-01-21T01:33:57.234Z,14.50
2023-01-21T01:36:24.384Z,14.63
2023-01-21T01:38:51.933Z,14.60
2023-01-21T01:41:24.160Z,13.82
2023-01-21T01:44:00.892Z,13.63
2023-01-21T01:46:29.858Z,11.55
2023-01-21T01:49:11.476Z,12.52
2023-01-21T01:51:49.088Z,12.30
2023-01-21T01:54:22.446Z,11.23
2023-01-21T01:56:54.846Z,11.60
2023-01-21T01:59:21.726Z,10.88
2023-01-21T02:01:48.782Z,10.10
2023-01-21T02:04:20.775Z,10.75
2023-01-21T02:06:48.835Z,10.20
2023-01-21T02:09:15.234Z,10.63
2023-01-21T02:11:41.709Z,12.05
2023-01-21T02:14:08.227Z,11.32
2023-01-21T02:16:50.296Z,11.52
2023-01-21T02:19:54.304Z,10.35
2023-01-21T02:22:29.589Z,11.40
2023-01-21T02:25:20.784Z,10.68
2023-01-21T02:27:54.688Z,10.65
2023-01-21T02:30:38.024Z,9.75
2023-01-21T02:33:22.474Z,11.02
2023-01-21T02:35:59.740Z,10.02
2023-01-21T02:38:40.910Z,9.65
2023-01-21T02:43:57.248Z,8.95
2023-01-21T02:46:35.070Z,10.43
2023-01-21T02:49:11.560Z,11.23
2023-01-21T02:51:37.992Z,10.43
2023-01-21T02:54:32.876Z,10.85
2023-01-21T02:56:59.352Z,9.52
2023-01-21T02:59:25.798Z,11.32
2023-01-21T03:02:29.977Z,11.20
2023-01-21T03:05:23.671Z,11.45
2023-01-21T03:08:10.151Z,11.45
2023-01-21T03:10:48.675Z,11.27
2023-01-21T03:13:43.510Z,10.52
2023-01-21T03:16:32.234Z,11.38
2023-01-21T03:19:04.579Z,10.27
2023-01-21T03:21:33.716Z,11.02
2023-01-21T03:24:01.568Z,9.73
2023-01-21T03:26:33.255Z,11.55
2023-01-21T03:29:09.315Z,10.60
2023-01-21T03:31:39.215Z,11.20
2023-01-21T03:34:09.866Z,11.05
2023-01-21T03:36:53.727Z,11.25
2023-01-21T03:39:48.336Z,9.93
2023-01-21T03:42:14.991Z,9.57
2023-01-21T03:44:42.123Z,10.57
2023-01-21T03:47:25.209Z,9.68
2023-01-21T03:50:04.229Z,8.48
2023-01-21T03:52:31.630Z,9.52
2023-01-21T03:54:58.042Z,9.35
2023-01-21T03:57:24.538Z,9.27
2023-01-21T03:59:51.034Z,12.85
2023-01-21T04:02:21.018Z,10.23
2023-01-21T04:04:47.732Z,9.05
2023-01-21T04:07:15.425Z,8.82
2023-01-21T04:09:41.907Z,8.63
2023-01-21T04:12:08.412Z,8.88
2023-01-21T04:14:34.836Z,8.38
2023-01-21T04:17:01.287Z,8.35
2023-01-21T04:19:27.756Z,9.20
2023-01-21T04:21:54.189Z,8.07
2023-01-21T04:24:20.575Z,8.43
2023-01-21T04:26:46.971Z,9.98
2023-01-21T04:29:13.461Z,7.82
2023-01-21T04:31:40.034Z,7.65
2023-01-21T04:34:06.475Z,7.07
2023-01-21T04:36:32.917Z,8.15
2023-01-21T04:38:59.383Z,9.57
2023-01-21T04:41:25.805Z,12.98
2023-01-21T04:43:52.246Z,12.70
2023-01-21T04:46:18.720Z,18.88
2023-01-21T04:48:45.149Z,14.38
2023-01-21T04:51:11.635Z,14.43
2023-01-21T04:53:38.176Z,14.82
2023-01-21T04:56:04.903Z,16.60
2023-01-21T04:58:31.482Z,13.70
2023-01-21T05:00:57.946Z,15.52
2023-01-21T05:03:24.437Z,12.85
2023-01-21T05:05:50.940Z,11.77
2023-01-21T05:08:17.405Z,10.82
2023-01-21T05:10:43.793Z,10.73
2023-01-21T05:13:10.227Z,10.10
2023-01-21T05:15:36.683Z,9.05
2023-01-21T05:18:03.280Z,9.52
2023-01-21T05:20:29.693Z,10.20
2023-01-21T05:22:56.222Z,8.73
2023-01-21T05:25:22.602Z,8.10
2023-01-21T05:27:53.161Z,7.65
2023-01-21T05:30:19.883Z,7.63
2023-01-21T05:32:53.205Z,7.03
2023-01-21T05:35:23.875Z,7.53
2023-01-21T05:37:50.575Z,7.68
2023-01-21T05:40:18.422Z,8.20
2023-01-21T05:42:46.246Z,9.82
2023-01-21T05:45:13.168Z,9.80
2023-01-21T05:47:39.610Z,8.48
2023-01-21T05:50:07.191Z,8.18
2023-01-21T05:52:34.590Z,8.30
2023-01-21T05:55:02.836Z,8.80
2023-01-21T05:57:30.603Z,7.18
2023-01-21T05:59:57.296Z,8.15
2023-01-21T06:02:23.940Z,7.63
2023-01-21T06:04:50.419Z,7.10
2023-01-21T06:07:17.039Z,7.10
2023-01-21T06:09:43.492Z,8.27
2023-01-21T06:12:09.923Z,8.65
2023-01-21T06:14:36.315Z,8.27
2023-01-21T06:17:02.722Z,8.25
2023-01-21T06:19:29.216Z,9.88
2023-01-21T06:21:55.644Z,8.80
2023-01-21T06:24:22.109Z,10.80
2023-01-21T06:26:48.506Z,12.80
2023-01-21T06:29:14.923Z,11.88
2023-01-21T06:31:41.487Z,11.05
2023-01-21T06:34:09.381Z,11.30
2023-01-21T06:36:36.323Z,11.25
2023-01-21T06:39:02.800Z,14.30
2023-01-21T06:41:29.208Z,13.20
2023-01-21T06:43:55.587Z,11.85
2023-01-21T06:46:22.057Z,13.43
2023-01-21T06:48:48.543Z,13.73
2023-01-21T06:51:15.032Z,14.27
2023-01-21T06:53:41.506Z,14.23
2023-01-21T06:56:07.911Z,14.68
2023-01-21T06:58:34.285Z,15.02
2023-01-21T07:01:00.676Z,15.70
2023-01-21T07:03:27.136Z,15.82
2023-01-21T07:05:53.528Z,15.13
2023-01-21T07:08:19.907Z,16.45
2023-01-21T07:10:47.840Z,16.88
2023-01-21T07:13:14.550Z,14.80
2023-01-21T07:15:41.011Z,17.67
2023-01-21T07:18:07.539Z,18.02
2023-01-21T07:20:34.161Z,15.75
2023-01-21T07:23:00.595Z,16.48
2023-01-21T07:25:27.171Z,18.40
2023-01-21T07:27:53.556Z,17.00
2023-01-21T07:30:21.041Z,15.35
2023-01-21T07:32:47.734Z,17.05
2023-01-21T07:35:14.531Z,16.60
2023-01-21T07:37:41.270Z,16.15
2023-01-21T07:40:08.575Z,16.92
2023-01-21T07:42:35.011Z,15.93
2023-01-21T07:45:03.790Z,17.33
2023-01-21T07:47:30.449Z,15.13
2023-01-21T07:49:56.831Z,16.08
2023-01-21T07:52:23.229Z,14.80
2023-01-21T07:54:49.668Z,16.65
2023-01-21T07:57:16.081Z,17.48
2023-01-21T07:59:42.851Z,14.00
2023-01-21T08:02:11.108Z,15.13
2023-01-21T08:04:37.646Z,17.88
2023-01-21T08:07:11.946Z,16.77
2023-01-21T08:09:39.715Z,16.13
2023-01-21T08:12:07.677Z,15.25
2023-01-21T08:14:34.576Z,15.50
2023-01-21T08:17:01.346Z,15.98
2023-01-21T08:19:27.810Z,15.98
2023-01-21T08:21:54.205Z,17.25
2023-01-21T08:24:20.591Z,15.23
2023-01-21T08:26:47.051Z,18.02
2023-01-21T08:29:13.433Z,15.18
2023-01-21T08:31:39.929Z,16.92
2023-01-21T08:34:06.389Z,14.93
2023-01-21T08:36:32.966Z,14.88
2023-01-21T08:39:01.784Z,16.73
2023-01-21T08:41:28.375Z,13.90
2023-01-21T08:43:54.766Z,13.70
2023-01-21T08:46:21.173Z,13.18
2023-01-21T08:48:47.569Z,14.85
2023-01-21T08:51:14.129Z,13.23
2023-01-21T08:53:40.625Z,14.02
2023-01-21T08:56:07.187Z,13.95
2023-01-21T08:58:33.753Z,14.18
2023-01-21T09:01:06.542Z,13.98
2023-01-21T09:03:32.954Z,16.90
2023-01-21T09:06:03.961Z,15.05
2023-01-21T09:08:30.533Z,18.77
2023-01-21T09:11:01.358Z,23.83
2023-01-21T09:13:33.337Z,14.35
2023-01-21T09:16:00.260Z,13.82
2023-01-21T09:18:26.759Z,14.43
2023-01-21T09:20:53.604Z,13.10
2023-01-21T09:23:25.966Z,12.68
2023-01-21T09:26:11.959Z,14.18
2023-01-21T09:28:39.957Z,14.75
2023-01-21T09:31:08.944Z,16.08
2023-01-21T09:33:37.520Z,14.43
2023-01-21T09:36:06.906Z,14.82
2023-01-21T09:38:33.417Z,16.42
2023-01-21T09:41:24.850Z,16.52
2023-01-21T09:44:07.336Z,15.20
2023-01-21T09:46:52.848Z,18.13
2023-01-21T09:49:27.594Z,14.90
2023-01-21T09:52:01.133Z,15.15
2023-01-21T09:54:31.253Z,13.55
2023-01-21T09:57:19.994Z,13.10
2023-01-21T10:00:19.651Z,13.45
2023-01-21T10:03:00.510Z,13.85
2023-01-21T10:05:43.508Z,15.60
2023-01-21T10:08:30.283Z,14.35
2023-01-21T10:11:13.489Z,15.85
2023-01-21T10:14:01.717Z,13.25
2023-01-21T10:16:42.376Z,12.80
2023-01-21T10:19:14.315Z,12.35
2023-01-21T10:21:53.671Z,14.57
2023-01-21T10:24:24.582Z,10.85
2023-01-21T10:26:53.849Z,13.40
2023-01-21T10:29:24.304Z,13.70
2023-01-21T10:32:04.276Z,14.27
2023-01-21T10:34:33.300Z,13.70
2023-01-21T10:37:18.348Z,12.93
2023-01-21T10:39:59.501Z,12.43
2023-01-21T10:42:49.242Z,12.93
2023-01-21T10:45:27.173Z,13.10
2023-01-21T10:48:02.322Z,14.00
2023-01-21T10:50:44.222Z,12.18
2023-01-21T10:53:29.774Z,12.52
2023-01-21T10:56:21.091Z,12.63
2023-01-21T10:58:57.770Z,12.45
2023-01-21T11:01:29.709Z,13.93
2023-01-21T11:04:13.094Z,12.85
2023-01-21T11:06:40.538Z,14.52
2023-01-21T11:09:10.617Z,14.27
2023-01-21T11:11:38.104Z,14.23
2023-01-21T11:14:04.544Z,13.27
2023-01-21T11:16:38.868Z,14.57
2023-01-21T11:19:07.241Z,14.77
2023-01-21T11:21:34.026Z,12.73
2023-01-21T11:24:18.283Z,15.00
2023-01-21T11:26:53.838Z,15.57
2023-01-21T11:29:21.810Z,15.60
2023-01-21T11:31:52.952Z,16.70
2023-01-21T11:34:22.258Z,13.90
2023-01-21T11:37:02.244Z,14.98
2023-01-21T11:39:31.776Z,14.65
2023-01-21T11:42:06.371Z,12.25
2023-01-21T11:44:34.130Z,14.98
2023-01-21T11:47:00.694Z,13.48
2023-01-21T11:49:32.706Z,14.10
2023-01-21T11:52:18.109Z,13.07
2023-01-21T11:54:44.895Z,12.30
2023-01-21T11:57:40.728Z,12.88
2023-01-21T12:00:18.785Z,11.63
2023-01-21T12:02:49.350Z,12.10
2023-01-21T12:05:28.564Z,10.65
2023-01-21T12:07:55.816Z,11.45
2023-01-21T12:10:45.731Z,12.60
2023-01-21T12:13:17.540Z,11.82
2023-01-21T12:16:18.512Z,12.30
2023-01-21T12:19:06.911Z,13.10
2023-01-21T12:22:10.272Z,11.57
2023-01-21T12:24:59.139Z,11.45
2023-01-21T12:27:34.739Z,13.52
2023-01-21T12:30:22.986Z,12.30
2023-01-21T12:32:56.691Z,14.68
2023-01-21T12:35:45.066Z,19.38
2023-01-21T12:38:20.157Z,13.38
2023-01-21T12:40:56.000Z,12.75
2023-01-21T12:43:34.111Z,12.93
2023-01-21T12:46:23.499Z,12.30
2023-01-21T12:49:05.609Z,16.17
2023-01-21T12:51:41.090Z,13.63
2023-01-21T12:54:21.150Z,13.65
2023-01-21T12:57:12.886Z,13.88
2023-01-21T12:59:57.071Z,11.05
2023-01-21T13:03:09.438Z,11.82
2023-01-21T13:05:50.345Z,12.98
2023-01-21T13:08:40.283Z,35.13
2023-01-21T13:11:18.654Z,11.80
2023-01-21T13:14:06.639Z,14.38
2023-01-21T13:16:40.793Z,13.15
2023-01-21T13:19:12.344Z,12.15
2023-01-21T13:22:18.219Z,13.07
2023-01-21T13:25:08.420Z,14.07
2023-01-21T13:27:48.156Z,12.88
2023-01-21T13:30:41.404Z,12.35
2023-01-21T13:33:31.580Z,11.90
2023-01-21T13:36:14.510Z,11.73
2023-01-21T13:39:05.181Z,10.27
2023-01-21T13:41:59.155Z,12.75
2023-01-21T13:44:49.565Z,10.68
2023-01-21T13:47:32.965Z,11.07
2023-01-21T13:50:19.642Z,11.35
2023-01-21T13:53:04.901Z,11.27
2023-01-21T13:56:08.635Z,9.77
2023-01-21T13:58:43.096Z,15.38
2023-01-21T14:01:17.810Z,13.43
2023-01-21T14:03:56.779Z,11.60
2023-01-21T14:06:39.345Z,12.02
2023-01-21T14:09:20.449Z,11.90
2023-01-21T14:12:02.743Z,10.88
2023-01-21T14:14:38.520Z,11.02
2023-01-21T14:17:43.532Z,12.82
2023-01-21T14:20:29.038Z,14.18
2023-01-21T14:23:10.286Z,10.95
2023-01-21T14:26:08.568Z,16.17
2023-01-21T14:28:49.915Z,12.02
2023-01-21T14:31:22.296Z,15.05
2023-01-21T14:34:05.180Z,10.65
2023-01-21T14:36:56.763Z,13.18
2023-01-21T14:42:01.938Z,8.73
2023-01-21T14:44:45.203Z,9.15
2023-01-21T14:47:29.705Z,9.48
2023-01-21T14:49:58.848Z,9.77
2023-01-21T14:52:40.511Z,9.23
2023-01-21T14:55:25.797Z,8.45
2023-01-21T14:57:53.304Z,8.38
2023-01-21T15:00:32.054Z,8.45
2023-01-21T15:03:27.205Z,11.90
2023-01-21T15:05:57.112Z,8.95
2023-01-21T15:08:25.377Z,7.22
2023-01-21T15:10:57.663Z,8.30
2023-01-21T15:13:33.232Z,7.82
2023-01-21T15:16:16.653Z,7.70
2023-01-21T15:18:48.342Z,7.95
2023-01-21T15:21:36.164Z,7.93
2023-01-21T15:24:30.433Z,7.90
2023-01-21T15:27:19.889Z,8.55
2023-01-21T15:30:06.571Z,9.38
2023-01-21T15:32:38.430Z,10.18
2023-01-21T15:35:16.247Z,11.80
2023-01-21T15:37:46.153Z,14.48
2023-01-21T15:40:19.801Z,8.15
2023-01-21T15:42:55.193Z,8.13
2023-01-21T15:45:48.925Z,8.70
2023-01-21T15:48:40.905Z,9.02
2023-01-21T15:51:39.567Z,10.85
2023-01-21T15:54:18.322Z,7.60
2023-01-21T15:56:56.187Z,8.43
2023-01-21T15:59:41.134Z,8.15
2023-01-21T16:02:13.701Z,7.75
2023-01-21T16:05:08.518Z,18.98
2023-01-21T16:07:47.162Z,14.57
2023-01-21T16:10:41.369Z,10.63
2023-01-21T16:13:16.144Z,9.77
2023-01-21T16:15:57.874Z,10.32
2023-01-21T16:18:50.083Z,9.95
2023-01-21T16:21:22.046Z,9.10
2023-01-21T16:23:52.300Z,9.32
2023-01-21T16:26:27.897Z,7.93
2023-01-21T16:28:54.669Z,8.10
2023-01-21T16:31:21.671Z,8.95
2023-01-21T16:33:48.717Z,7.65
2023-01-21T16:36:15.412Z,9.70
2023-01-21T16:38:43.961Z,9.35
2023-01-21T16:41:10.319Z,7.55
2023-01-21T16:43:50.259Z,8.75
2023-01-21T16:46:20.816Z,7.90
2023-01-21T16:48:52.435Z,8.32
2023-01-21T16:51:24.943Z,10.25
2023-01-21T16:54:20.128Z,9.27
2023-01-21T16:56:51.928Z,9.57
2023-01-21T16:59:25.285Z,8.38
2023-01-21T17:01:52.894Z,8.05
2023-01-21T17:04:19.434Z,8.82
2023-01-21T17:06:46.671Z,8.85
2023-01-21T17:09:27.114Z,13.70
2023-01-21T17:11:55.107Z,9.93
2023-01-21T17:14:29.634Z,10.43
2023-01-21T17:17:00.517Z,8.48
2023-01-21T17:19:39.331Z,10.75
2023-01-21T17:22:15.024Z,9.48
2023-01-21T17:25:02.289Z,9.75
2023-01-21T17:27:30.046Z,9.02
2023-01-21T17:30:29.577Z,9.60
2023-01-21T17:32:58.811Z,12.10
2023-01-21T17:35:27.397Z,10.18
2023-01-21T17:37:57.980Z,8.85
2023-01-21T17:40:33.167Z,8.90
2023-01-21T17:43:11.048Z,8.82
2023-01-21T17:45:42.475Z,9.80
2023-01-21T17:50:46.289Z,10.77
2023-01-21T17:53:21.484Z,9.05
2023-01-21T17:56:08.576Z,9.90
2023-01-21T17:58:48.150Z,10.27
2023-01-21T18:01:15.911Z,10.05
2023-01-21T18:03:42.382Z,10.82
2023-01-21T18:06:20.581Z,9.48
2023-01-21T18:08:47.034Z,10.50
2023-01-21T18:11:16.950Z,9.25
2023-01-21T18:13:43.483Z,8.73
2023-01-21T18:16:10.497Z,10.32
2023-01-21T18:18:38.112Z,9.48
2023-01-21T18:21:05.190Z,10.07
2023-01-21T18:23:32.310Z,9.57
2023-01-21T18:25:58.878Z,9.98
2023-01-21T18:28:27.821Z,9.52
2023-01-21T18:30:56.427Z,8.63
2023-01-21T18:33:23.571Z,10.55
2023-01-21T18:35:52.034Z,10.82
2023-01-21T18:38:27.687Z,9.77
2023-01-21T18:40:55.197Z,10.15
2023-01-21T18:43:21.642Z,10.65
2023-01-21T18:45:48.292Z,11.60
2023-01-21T18:48:16.146Z,10.85
2023-01-21T18:50:42.776Z,10.65
2023-01-21T18:53:09.313Z,11.32
2023-01-21T18:55:35.847Z,9.68
2023-01-21T18:58:04.421Z,10.73
2023-01-21T19:00:33.751Z,12.60
2023-01-21T19:03:01.493Z,10.35
2023-01-21T19:05:34.464Z,10.50
2023-01-21T19:08:01.893Z,11.10
2023-01-21T19:10:28.764Z,11.23
2023-01-21T19:12:55.175Z,11.10
2023-01-21T19:15:24.646Z,11.98
2023-01-21T19:17:51.961Z,11.13
2023-01-21T19:20:21.893Z,13.80
2023-01-21T19:22:49.564Z,13.77
2023-01-21T19:25:18.049Z,12.75
2023-01-21T19:27:47.351Z,12.27
2023-01-21T19:30:28.084Z,11.55
2023-01-21T19:32:56.183Z,12.45
2023-01-21T19:35:28.662Z,12.40
2023-01-21T19:37:55.422Z,12.25
2023-01-21T19:40:25.169Z,11.02
2023-01-21T19:42:51.952Z,12.98
2023-01-21T19:45:19.283Z,12.35
2023-01-21T19:47:47.647Z,12.80
2023-01-21T19:50:16.753Z,12.32
2023-01-21T19:52:44.557Z,10.95
2023-01-21T19:55:31.953Z,12.88
2023-01-21T19:58:02.802Z,13.32
2023-01-21T20:00:32.104Z,14.27
2023-01-21T20:02:58.938Z,16.67
2023-01-21T20:05:28.311Z,18.77
2023-01-21T20:07:55.402Z,17.90
2023-01-21T20:10:27.547Z,13.48
2023-01-21T20:12:54.116Z,20.50
2023-01-21T20:15:36.508Z,26.77
2023-01-21T20:18:04.024Z,16.92
2023-01-21T20:20:32.534Z,24.52
2023-01-21T20:23:00.868Z,24.45
2023-01-21T20:25:38.218Z,25.05
2023-01-21T20:28:15.650Z,33.33
2023-01-21T20:30:42.136Z,21.27
2023-01-21T20:33:14.328Z,19.42
2023-01-21T20:35:40.876Z,53.78
2023-01-21T20:38:12.933Z,38.25
2023-01-21T20:40:39.689Z,18.35
2023-01-21T20:43:06.261Z,23.73
2023-01-21T20:45:39.844Z,18.92
2023-01-21T20:48:06.511Z,26.83
2023-01-21T20:50:35.239Z,19.00
2023-01-21T20:53:03.401Z,20.65
2023-01-21T20:55:31.258Z,23.17
2023-01-21T20:57:57.912Z,20.00
2023-01-21T21:00:27.722Z,17.95
2023-01-21T21:03:00.275Z,19.67
2023-01-21T21:05:28.416Z,43.20
2023-01-21T21:07:55.592Z,23.77
2023-01-21T21:10:32.799Z,17.98
2023-01-21T21:12:59.244Z,19.30
2023-01-21T21:15:30.943Z,15.55
2023-01-21T21:17:58.265Z,35.63
2023-01-21T21:20:30.633Z,41.67
2023-01-21T21:22:57.226Z,40.78
2023-01-21T21:25:26.670Z,23.70
2023-01-21T21:27:54.399Z,12.73
2023-01-21T21:30:29.355Z,17.75
2023-01-21T21:32:57.607Z,33.50
2023-01-21T21:35:37.582Z,21.90
2023-01-21T21:38:11.615Z,25.65
2023-01-21T21:40:38.372Z,13.45
2023-01-21T21:43:23.392Z,12.05
2023-01-21T21:46:08.131Z,12.85
2023-01-21T21:48:45.972Z,10.88
2023-01-21T21:51:14.799Z,11.07
2023-01-21T21:53:41.670Z,10.65
2023-01-21T21:56:18.412Z,11.13
2023-01-21T21:58:45.415Z,10.95
2023-01-21T22:01:18.290Z,12.32
2023-01-21T22:03:45.226Z,12.13
2023-01-21T22:06:12.783Z,11.65
2023-01-21T22:08:41.255Z,10.70
2023-01-21T22:11:10.324Z,10.52
2023-01-21T22:13:40.144Z,11.32
2023-01-21T22:16:10.767Z,12.88
2023-01-21T22:18:37.374Z,11.77
2023-01-21T22:21:10.336Z,11.55
2023-01-21T22:23:37.674Z,10.95
2023-01-21T22:26:06.568Z,11.70
2023-01-21T22:28:34.786Z,10.75
2023-01-21T22:31:05.789Z,14.02
2023-01-21T22:33:33.239Z,13.13
2023-01-21T22:36:04.175Z,13.30
2023-01-21T22:38:32.707Z,11.93
2023-01-21T22:40:59.148Z,13.00
2023-01-21T22:43:26.902Z,11.80
2023-01-21T22:45:55.367Z,12.05
2023-01-21T22:48:22.398Z,11.05
2023-01-21T22:50:53.985Z,12.82
2023-01-21T22:53:21.267Z,13.02
2023-01-21T22:56:02.707Z,11.43
2023-01-21T22:58:30.801Z,11.50
2023-01-21T23:00:57.748Z,11.00
2023-01-21T23:03:25.369Z,10.70
2023-01-21T23:05:52.625Z,10.85
2023-01-21T23:08:19.835Z,10.05
2023-01-21T23:10:47.479Z,10.80
2023-01-21T23:13:15.861Z,11.20
2023-01-21T23:15:46.609Z,10.40
2023-01-21T23:18:14.814Z,9.52
2023-01-21T23:20:43.072Z,9.82
2023-01-21T23:23:11.167Z,9.98
2023-01-21T23:25:44.771Z,9.50
2023-01-21T23:28:12.475Z,8.77
2023-01-21T23:30:39.314Z,9.10
2023-01-21T23:33:06.382Z,9.48
2023-01-21T23:35:34.596Z,8.85
2023-01-21T23:38:02.247Z,9.15
2023-01-21T23:40:28.644Z,8.95
2023-01-21T23:42:55.079Z,9.00
2023-01-21T23:45:21.709Z,9.90
2023-01-21T23:47:48.633Z,9.48
2023-01-21T23:50:15.695Z,9.15
2023-01-21T23:52:42.442Z,9.45
2023-01-21T23:55:10.224Z,8.52
2023-01-21T23:57:37.353Z,9.00
